Time;durP1;ratioP1;P1;durP2;ratioP2;P2;SDS_P1;SDS_P2;PMS_P1;PMS_P2;Temp;Humidity;BMP_temperature;BMP_pressure;BME280_temperature;BME280_humidity;BME280_pressure;Samples;Min_cycle;Max_cycle;Signal;HPM_P1;HPM_P2
2022/12/08 00:00:22;;;;;;;6.33;3.73;;;1.00;99.90;;;;;;4920130;29;20233;-82
2022/12/08 00:03:09;;;;;;;6.73;3.83;;;1.00;99.90;;;;;;4936479;29;20547;-83
2022/12/08 00:12:29;;;;;;;6.90;3.83;;;0.90;99.90;;;;;;4935267;29;20221;-82
2022/12/08 00:15:06;;;;;;;;;;;;;;;;;;;;;
2022/12/08 00:18:00;;;;;;;7.57;3.67;;;0.90;99.90;;;;;;4944962;29;20248;-88
2022/12/08 00:20:41;;;;;;;6.03;3.90;;;0.90;99.90;;;;;;4965945;28;20192;-88
2022/12/08 00:24:02;;;;;;;7.27;3.70;;;0.90;99.90;;;;;;4978287;28;20208;-87
2022/12/08 00:27:47;;;;;;;9.03;3.50;;;0.80;99.90;;;;;;4966171;28;20221;-88
2022/12/08 00:30:59;;;;;;;5.80;3.63;;;0.80;99.90;;;;;;4954671;29;20213;-89
2022/12/08 00:34:17;;;;;;;5.73;3.67;;;0.80;99.90;;;;;;4857067;29;20247;-89
2022/12/08 00:38:12;;;;;;;7.40;3.70;;;0.80;99.90;;;;;;4916463;29;20251;-90
2022/12/08 00:44:54;;;;;;;5.23;2.90;;;0.70;99.90;;;;;;4811095;29;20209;-78
2022/12/08 00:47:29;;;;;;;7.20;3.30;;;0.70;99.90;;;;;;4826383;29;20295;-79
2022/12/08 00:49:56;;;;;;;6.13;2.87;;;0.80;99.90;;;;;;4841699;29;20686;-76
2022/12/08 00:52:26;;;;;;;4.93;3.20;;;0.80;99.90;;;;;;4845836;29;20216;-78
2022/12/08 00:54:56;;;;;;;6.13;3.00;;;0.70;99.90;;;;;;4844593;29;20205;-76
2022/12/08 00:57:39;;;;;;;5.93;3.00;;;0.70;99.90;;;;;;4853621;29;20207;-78
2022/12/08 01:00:20;;;;;;;4.67;2.50;;;0.60;99.90;;;;;;4844482;29;20209;-79
2022/12/08 01:02:50;;;;;;;4.07;2.30;;;0.60;99.90;;;;;;4897494;29;20260;-75
2022/12/08 01:08:51;;;;;;;4.43;2.30;;;0.50;99.90;;;;;;4860062;29;20212;-74
2022/12/08 01:11:43;;;;;;;4.37;2.50;;;0.50;99.90;;;;;;4862431;29;20209;-76
2022/12/08 01:14:30;;;;;;;4.13;2.50;;;0.50;99.90;;;;;;4877033;29;20649;-81
2022/12/08 01:17:04;;;;;;;4.63;2.50;;;0.50;99.90;;;;;;4859428;29;20204;-78
2022/12/08 01:19:42;;;;;;;4.87;2.70;;;0.50;99.90;;;;;;4853477;29;20213;-75
2022/12/08 01:22:15;;;;;;;4.40;2.60;;;0.40;99.90;;;;;;4840908;29;20655;-79
2022/12/08 01:24:43;;;;;;;6.97;2.57;;;0.40;99.90;;;;;;4888368;29;20740;-76
2022/12/08 01:27:10;;;;;;;4.33;2.60;;;0.40;99.90;;;;;;4915386;29;20215;-84
2022/12/08 01:29:40;;;;;;;5.17;2.80;;;0.40;99.90;;;;;;4900884;29;20203;-76
2022/12/08 01:32:20;;;;;;;6.80;2.90;;;0.30;99.90;;;;;;4915573;29;20199;-85
2022/12/08 01:34:51;;;;;;;4.20;2.50;;;0.30;99.90;;;;;;4914089;29;20380;-83
2022/12/08 01:37:19;;;;;;;7.43;3.17;;;0.30;99.90;;;;;;4918344;29;20210;-75
2022/12/08 01:39:46;;;;;;;6.20;2.80;;;0.30;99.90;;;;;;4934473;29;20835;-89
2022/12/08 01:42:33;;;;;;;4.73;2.70;;;0.30;99.90;;;;;;4918512;29;20212;-77
2022/12/08 01:45:06;;;;;;;4.43;2.90;;;0.30;99.90;;;;;;4969233;28;20208;-74
2022/12/08 01:47:50;;;;;;;7.43;2.80;;;0.30;99.90;;;;;;4977029;28;20593;-79
2022/12/08 01:50:22;;;;;;;6.00;3.03;;;0.30;99.90;;;;;;4994218;28;20201;-77
2022/12/08 01:53:00;;;;;;;5.57;2.87;;;0.30;99.90;;;;;;4992775;28;20234;-85
2022/12/08 01:55:53;;;;;;;7.13;2.97;;;0.30;99.90;;;;;;4976640;28;20188;-89
2022/12/08 01:58:31;;;;;;;8.50;2.70;;;0.40;99.90;;;;;;4976630;28;20704;-88
2022/12/08 02:00:58;;;;;;;7.37;3.00;;;0.40;99.90;;;;;;4997251;28;20232;-87
2022/12/08 02:03:55;;;;;;;4.83;2.60;;;0.40;99.90;;;;;;5013819;28;20186;-82
2022/12/08 02:06:23;;;;;;;7.90;3.20;;;0.40;99.90;;;;;;4996025;28;20201;-88
2022/12/08 02:08:54;;;;;;;5.27;2.60;;;0.40;99.90;;;;;;4987486;28;20247;-90
2022/12/08 02:11:21;;;;;;;3.73;2.60;;;0.40;99.90;;;;;;4982978;28;20228;-91
2022/12/08 02:13:50;;;;;;;4.77;3.07;;;0.30;99.90;;;;;;4993199;28;20235;-89
2022/12/08 02:16:48;;;;;;;7.80;3.27;;;0.30;99.90;;;;;;5003886;28;20521;-85
2022/12/08 02:19:54;;;;;;;5.43;2.93;;;0.30;99.90;;;;;;4982850;28;20216;-92
2022/12/08 02:22:37;;;;;;;7.37;3.20;;;0.20;99.90;;;;;;4979493;28;20203;-93
2022/12/08 02:25:35;;;;;;;6.63;2.93;;;0.20;99.90;;;;;;4976243;28;20287;-76
2022/12/08 02:28:36;;;;;;;5.57;2.93;;;0.20;99.90;;;;;;4987520;28;20204;-75
2022/12/08 02:32:01;;;;;;;6.97;2.87;;;0.20;99.90;;;;;;4979725;28;20653;-75
2022/12/08 02:35:08;;;;;;;6.20;3.17;;;0.20;99.90;;;;;;4979884;28;20768;-87
2022/12/08 02:39:03;;;;;;;5.33;3.17;;;0.20;99.90;;;;;;4968875;28;20184;-84
2022/12/08 02:42:22;;;;;;;7.43;3.53;;;0.20;99.90;;;;;;4981202;28;20216;-80
2022/12/08 02:45:12;;;;;;;7.83;3.33;;;0.20;99.90;;;;;;4921354;29;20208;-79
2022/12/08 02:48:01;;;;;;;7.03;3.50;;;0.10;99.90;;;;;;4921437;29;20208;-83
2022/12/08 02:51:27;;;;;;;6.17;3.50;;;0.10;99.90;;;;;;4937332;29;20560;-82
2022/12/08 02:53:58;;;;;;;8.53;3.87;;;0.10;99.90;;;;;;4921309;29;20647;-82
2022/12/08 02:56:46;;;;;;;6.50;3.90;;;0.10;99.90;;;;;;4921302;29;20206;-78
2022/12/08 02:59:25;;;;;;;6.17;3.77;;;0.10;99.90;;;;;;4921588;29;20208;-88
2022/12/08 03:02:36;;;;;;;7.07;3.83;;;0.10;99.90;;;;;;4936682;29;20684;-76
2022/12/08 03:05:53;;;;;;;6.03;3.57;;;0.10;99.90;;;;;;4917451;29;20214;-80
2022/12/08 03:08:56;;;;;;;7.63;3.57;;;0.10;99.90;;;;;;4937149;29;20301;-81
2022/12/08 03:11:44;;;;;;;7.83;3.80;;;0.10;99.90;;;;;;4920975;29;20237;-80
2022/12/08 03:14:15;;;;;;;10.27;3.90;;;0.10;99.90;;;;;;4936746;29;20712;-79
2022/12/08 03:16:50;;;;;;;7.47;3.80;;;0.10;99.90;;;;;;4920973;29;20338;-81
2022/12/08 03:19:37;;;;;;;7.60;3.90;;;0.10;99.90;;;;;;4921470;29;20304;-80
2022/12/08 03:22:18;;;;;;;5.20;3.53;;;0.10;99.90;;;;;;4944191;28;20205;-84
2022/12/08 03:24:47;;;;;;;5.93;4.10;;;0.00;99.90;;;;;;4976125;28;20200;-78
2022/12/08 03:27:18;;;;;;;6.27;3.53;;;0.00;99.90;;;;;;4960130;28;20221;-90
2022/12/08 03:29:49;;;;;;;9.40;3.70;;;0.00;99.90;;;;;;4977473;28;20182;-77
2022/12/08 03:32:19;;;;;;;6.40;3.80;;;0.00;99.90;;;;;;4977374;28;20206;-89
2022/12/08 03:34:51;;;;;;;9.87;4.23;;;0.00;99.90;;;;;;4976993;28;20217;-80
2022/12/08 03:37:19;;;;;;;10.13;3.90;;;-0.10;99.90;;;;;;4976052;28;20201;-90
2022/12/08 03:39:47;;;;;;;7.27;3.80;;;-0.10;99.90;;;;;;4960296;28;20214;-86
2022/12/08 03:42:14;;;;;;;11.17;3.70;;;0.00;99.90;;;;;;4975847;28;20220;-76
2022/12/08 03:44:43;;;;;;;7.27;4.10;;;0.00;99.90;;;;;;4959551;28;20203;-78
2022/12/08 03:47:10;;;;;;;8.87;4.10;;;0.00;99.90;;;;;;4959258;28;20210;-80
2022/12/08 03:49:37;;;;;;;9.07;4.13;;;0.00;99.90;;;;;;4976731;28;20204;-75
2022/12/08 03:52:05;;;;;;;7.43;4.27;;;0.00;99.90;;;;;;4975787;28;20196;-75
2022/12/08 03:54:32;;;;;;;7.93;4.10;;;0.00;99.90;;;;;;4959671;28;20220;-77
2022/12/08 03:56:59;;;;;;;8.03;4.03;;;0.00;99.90;;;;;;4959195;28;20199;-89
2022/12/08 03:59:26;;;;;;;8.40;4.40;;;0.00;99.90;;;;;;4959565;28;20588;-80
2022/12/08 04:01:54;;;;;;;10.13;4.40;;;0.00;99.90;;;;;;4943769;28;20227;-81
2022/12/08 04:04:21;;;;;;;7.53;4.40;;;-0.10;99.90;;;;;;4976268;28;20280;-78
2022/12/08 04:06:49;;;;;;;10.03;4.97;;;-0.10;99.90;;;;;;4976743;28;20608;-74
2022/12/08 04:09:20;;;;;;;8.80;4.80;;;-0.10;99.90;;;;;;4976832;28;20209;-76
2022/12/08 04:11:47;;;;;;;9.67;4.83;;;-0.10;99.90;;;;;;4959631;28;20205;-88
2022/12/08 04:14:36;;;;;;;8.90;4.57;;;-0.10;99.90;;;;;;4959354;28;20238;-90
2022/12/08 04:17:03;;;;;;;11.40;4.93;;;-0.20;99.90;;;;;;4976545;28;20251;-90
2022/12/08 04:19:31;;;;;;;9.53;5.13;;;-0.10;99.90;;;;;;4959317;28;20210;-89
2022/12/08 04:22:01;;;;;;;8.97;5.00;;;-0.10;99.90;;;;;;4975855;28;20250;-89
2022/12/08 04:24:31;;;;;;;9.13;4.80;;;-0.10;99.90;;;;;;4976206;28;20196;-89
2022/12/08 04:27:21;;;;;;;8.50;4.83;;;-0.10;99.90;;;;;;4959071;28;20270;-90
2022/12/08 04:29:54;;;;;;;11.00;5.27;;;-0.10;99.90;;;;;;4976153;28;20217;-90
2022/12/08 04:32:21;;;;;;;12.47;5.30;;;0.00;99.90;;;;;;4958893;28;20704;-91
2022/12/08 04:34:48;;;;;;;12.43;5.43;;;0.10;99.90;;;;;;4974863;28;20286;-91
2022/12/08 04:37:18;;;;;;;11.30;5.53;;;0.10;99.90;;;;;;4976170;28;20190;-89
2022/12/08 04:39:45;;;;;;;9.80;5.47;;;0.20;99.90;;;;;;4959305;28;20210;-91
2022/12/08 04:42:12;;;;;;;12.37;5.60;;;0.20;99.90;;;;;;4974862;28;20197;-77
2022/12/08 04:44:40;;;;;;;11.97;5.93;;;0.20;99.90;;;;;;4958527;28;20215;-75
2022/12/08 04:47:07;;;;;;;11.67;5.43;;;0.30;99.90;;;;;;4958600;28;20709;-74
2022/12/08 04:49:47;;;;;;;9.73;5.27;;;0.30;99.90;;;;;;4958428;28;20263;-89
2022/12/08 04:52:58;;;;;;;13.00;5.83;;;0.30;99.90;;;;;;4973340;28;20209;-93
2022/12/08 04:55:25;;;;;;;9.53;5.27;;;0.40;99.90;;;;;;4975541;28;20202;-91
2022/12/08 04:58:02;;;;;;;10.80;5.70;;;0.40;99.90;;;;;;4975800;28;20267;-91
2022/12/08 05:00:30;;;;;;;12.43;5.67;;;0.40;99.90;;;;;;4958429;28;20215;-83
2022/12/08 05:02:57;;;;;;;12.07;6.13;;;0.40;99.90;;;;;;4958284;28;20280;-85
2022/12/08 05:05:25;;;;;;;11.47;6.07;;;0.40;99.90;;;;;;4975258;28;20205;-85
2022/12/08 05:08:06;;;;;;;12.23;6.13;;;0.40;99.90;;;;;;4958274;28;20252;-79
2022/12/08 05:10:36;;;;;;;10.53;5.90;;;0.30;99.90;;;;;;4974186;28;20292;-75
2022/12/08 05:13:06;;;;;;;9.17;5.77;;;0.30;99.90;;;;;;4958164;28;20236;-89
2022/12/08 05:19:38;;;;;;;10.93;6.03;;;0.30;99.90;;;;;;4975477;28;20576;-85
2022/12/08 05:22:17;;;;;;;13.23;6.60;;;0.30;99.90;;;;;;4958383;28;20223;-82
2022/12/08 05:27:56;;;;;;;11.37;5.73;;;0.30;99.90;;;;;;4897034;29;20243;-90
2022/12/08 05:30:43;;;;;;;11.93;6.60;;;0.30;99.90;;;;;;4896862;29;20216;-88
2022/12/08 05:33:18;;;;;;;16.20;5.93;;;0.30;99.90;;;;;;4897040;29;20613;-93
2022/12/08 05:35:45;;;;;;;13.67;5.73;;;0.40;99.90;;;;;;4880932;29;20594;-92
2022/12/08 05:38:12;;;;;;;12.47;6.40;;;0.30;99.90;;;;;;4880705;29;20202;-84
2022/12/08 05:40:47;;;;;;;12.03;5.93;;;0.40;99.90;;;;;;4880997;29;20232;-93
2022/12/08 05:43:14;;;;;;;12.43;6.07;;;0.40;99.90;;;;;;4896734;29;20662;-86
2022/12/08 05:45:41;;;;;;;12.30;6.37;;;0.30;99.90;;;;;;4880953;29;20827;-84
2022/12/08 05:48:08;;;;;;;11.60;5.90;;;0.30;99.90;;;;;;4880971;29;20645;-92
2022/12/08 05:50:36;;;;;;;12.37;6.30;;;0.30;99.90;;;;;;4896637;29;20727;-92
2022/12/08 05:53:03;;;;;;;12.40;6.37;;;0.30;99.90;;;;;;4896866;29;20570;-94
2022/12/08 05:55:31;;;;;;;11.20;6.20;;;0.30;99.90;;;;;;4880286;29;20223;-90
2022/12/08 05:57:58;;;;;;;11.40;6.70;;;0.30;99.90;;;;;;4881183;29;20592;-89
2022/12/08 06:00:33;;;;;;;10.50;6.00;;;0.30;99.90;;;;;;4881511;29;20642;-90
2022/12/08 06:03:00;;;;;;;14.03;6.13;;;0.40;99.90;;;;;;4914442;28;20236;-90
2022/12/08 06:05:28;;;;;;;13.40;6.60;;;0.40;99.90;;;;;;4957437;28;20228;-90
2022/12/08 06:07:55;;;;;;;15.13;7.00;;;0.40;99.90;;;;;;4957786;28;20197;-92
2022/12/08 06:10:25;;;;;;;13.90;6.53;;;0.40;99.90;;;;;;4956956;28;20200;-90
2022/12/08 06:12:53;;;;;;;12.40;6.37;;;0.40;99.90;;;;;;4973452;28;20217;-89
2022/12/08 06:15:20;;;;;;;13.97;6.33;;;0.40;99.90;;;;;;4973027;28;20318;-88
2022/12/08 06:17:47;;;;;;;13.67;6.50;;;0.40;99.90;;;;;;4973442;28;20194;-77
2022/12/08 06:20:14;;;;;;;14.10;6.43;;;0.50;99.90;;;;;;4957171;28;20212;-81
2022/12/08 06:22:41;;;;;;;13.90;6.93;;;0.50;99.90;;;;;;4957531;28;20203;-76
2022/12/08 06:25:09;;;;;;;18.13;7.07;;;0.50;99.90;;;;;;4956765;28;20208;-79
2022/12/08 06:27:36;;;;;;;11.20;6.60;;;0.50;99.90;;;;;;4974485;28;20170;-81
2022/12/08 06:30:04;;;;;;;13.03;6.37;;;0.50;99.90;;;;;;4957099;28;20655;-82
2022/12/08 06:32:31;;;;;;;12.53;6.30;;;0.50;99.90;;;;;;4957279;28;20661;-89
2022/12/08 06:34:58;;;;;;;11.90;6.83;;;0.50;99.90;;;;;;4957061;28;20224;-88
2022/12/08 06:37:25;;;;;;;14.53;7.03;;;0.60;99.90;;;;;;4974420;28;20212;-78
2022/12/08 06:39:55;;;;;;;12.03;6.63;;;0.50;99.90;;;;;;4956560;28;20617;-77
2022/12/08 06:45:09;;;;;;;15.77;6.97;;;0.40;99.90;;;;;;4956773;28;20200;-77
2022/12/08 06:47:35;;;;;;;11.90;6.83;;;0.30;99.90;;;;;;4974062;28;20251;-77
2022/12/08 06:50:04;;;;;;;14.50;6.77;;;0.40;99.90;;;;;;4956843;28;20201;-83
2022/12/08 06:52:31;;;;;;;15.50;7.33;;;0.40;99.90;;;;;;4956764;28;20200;-88
2022/12/08 06:54:58;;;;;;;14.97;6.70;;;0.40;99.90;;;;;;4973816;28;20228;-89
2022/12/08 06:57:25;;;;;;;12.03;6.90;;;0.40;99.90;;;;;;4956591;28;20240;-76
2022/12/08 06:59:52;;;;;;;14.37;6.77;;;0.20;99.90;;;;;;4956660;28;20194;-88
2022/12/08 07:02:26;;;;;;;13.93;7.07;;;0.20;99.90;;;;;;4984951;28;20234;-86
2022/12/08 07:04:55;;;;;;;17.47;7.13;;;0.20;99.90;;;;;;4976135;28;20204;-92
2022/12/08 07:07:25;;;;;;;16.97;7.63;;;0.10;99.90;;;;;;4976883;28;20254;-90
2022/12/08 07:09:52;;;;;;;14.50;7.13;;;0.10;99.90;;;;;;4976273;28;20255;-94
2022/12/08 07:12:20;;;;;;;13.73;7.10;;;0.00;99.90;;;;;;4976080;28;20189;-95
2022/12/08 07:14:57;;;;;;;14.77;7.40;;;0.00;99.90;;;;;;4966650;28;20222;-88
2022/12/08 07:17:29;;;;;;;14.87;7.50;;;0.00;99.90;;;;;;5005175;28;20238;-96
2022/12/08 07:19:56;;;;;;;11.27;7.23;;;0.00;99.90;;;;;;4965327;28;20241;-92
2022/12/08 07:22:24;;;;;;;14.53;7.23;;;0.00;99.90;;;;;;4996220;28;20568;-85
2022/12/08 07:24:51;;;;;;;13.67;7.80;;;-0.10;99.90;;;;;;4979730;28;20733;-78
2022/12/08 07:27:18;;;;;;;16.27;7.60;;;-0.10;99.90;;;;;;4996872;28;20200;-76
2022/12/08 07:29:45;;;;;;;16.23;7.83;;;-0.10;99.90;;;;;;4979329;28;20330;-89
2022/12/08 07:32:12;;;;;;;13.50;7.67;;;-0.10;99.90;;;;;;4979504;28;20228;-75
2022/12/08 07:34:39;;;;;;;19.43;8.00;;;-0.10;99.90;;;;;;4979224;28;20606;-80
2022/12/08 07:37:06;;;;;;;18.70;8.33;;;-0.10;99.90;;;;;;4996675;28;20197;-76
2022/12/08 07:39:33;;;;;;;16.83;7.93;;;-0.10;99.90;;;;;;4996302;28;20725;-79
2022/12/08 07:42:00;;;;;;;16.90;7.70;;;0.00;99.90;;;;;;4979101;28;20673;-91
2022/12/08 07:44:27;;;;;;;16.63;7.70;;;0.00;99.90;;;;;;4979315;28;20281;-92
2022/12/08 07:46:54;;;;;;;17.47;7.70;;;0.10;99.90;;;;;;4996631;28;20185;-92
2022/12/08 07:49:21;;;;;;;17.07;7.50;;;0.40;99.90;;;;;;4979582;28;20203;-94
2022/12/08 07:51:48;;;;;;;16.40;7.73;;;0.80;99.90;;;;;;4996910;28;20244;-82
2022/12/08 07:54:15;;;;;;;13.03;6.70;;;0.90;99.90;;;;;;4996367;28;20234;-79
2022/12/08 07:56:45;;;;;;;13.97;7.37;;;1.20;99.90;;;;;;4995639;28;20204;-93
2022/12/08 07:59:13;;;;;;;16.70;7.80;;;1.50;99.90;;;;;;4979418;28;20551;-96
2022/12/08 08:01:40;;;;;;;17.30;8.07;;;1.70;99.90;;;;;;4972130;28;20222;-94
2022/12/08 08:04:11;;;;;;;18.73;7.90;;;2.00;99.90;;;;;;4971703;28;20605;-91
2022/12/08 08:06:38;;;;;;;14.93;7.70;;;2.10;99.90;;;;;;4979291;28;20211;-76
2022/12/08 08:09:07;;;;;;;17.10;7.23;;;2.10;99.90;;;;;;4995148;28;20193;-74
2022/12/08 08:11:34;;;;;;;16.10;7.53;;;2.20;99.90;;;;;;4974457;28;20668;-83
2022/12/08 08:14:02;;;;;;;14.80;6.77;;;2.20;99.90;;;;;;4959153;28;20228;-83
2022/12/08 08:16:29;;;;;;;16.33;6.60;;;2.40;99.90;;;;;;4970139;28;20215;-87
2022/12/08 08:19:04;;;;;;;14.60;6.53;;;2.40;99.90;;;;;;4967471;28;20544;-92
2022/12/08 08:21:38;;;;;;;14.43;6.83;;;2.50;99.90;;;;;;4963218;28;20227;-93
2022/12/08 08:24:17;;;;;;;12.53;7.30;;;2.60;99.90;;;;;;4969300;28;20203;-96
2022/12/08 08:26:45;;;;;;;15.27;7.10;;;2.80;99.90;;;;;;4973295;28;20268;-96
2022/12/08 08:29:15;;;;;;;15.30;7.50;;;2.80;99.90;;;;;;4977832;28;20197;-81
2022/12/08 08:31:57;;;;;;;14.43;8.10;;;2.90;99.90;;;;;;4963528;28;20201;-76
2022/12/08 08:34:27;;;;;;;15.17;8.30;;;2.90;99.90;;;;;;4975876;28;20221;-83
2022/12/08 08:36:57;;;;;;;17.17;8.60;;;2.80;99.90;;;;;;4978051;28;20547;-85
2022/12/08 08:39:30;;;;;;;17.50;8.73;;;2.60;99.90;;;;;;4981248;28;20232;-76
2022/12/08 08:42:04;;;;;;;14.33;7.80;;;2.40;99.90;;;;;;4997540;28;20206;-85
2022/12/08 08:44:37;;;;;;;15.37;8.37;;;2.00;99.90;;;;;;4981084;28;20188;-82
2022/12/08 08:47:08;;;;;;;16.13;8.40;;;2.00;99.90;;;;;;4997270;28;20195;-75
2022/12/08 08:49:35;;;;;;;20.13;8.43;;;1.90;99.90;;;;;;4997948;28;20199;-86
2022/12/08 08:52:06;;;;;;;19.77;9.10;;;2.00;99.90;;;;;;5015024;28;20494;-81
2022/12/08 08:54:36;;;;;;;17.07;8.30;;;2.10;99.90;;;;;;5016109;28;20214;-87
2022/12/08 08:57:04;;;;;;;14.70;8.03;;;2.10;99.90;;;;;;4997608;28;20660;-76
2022/12/08 08:59:31;;;;;;;15.33;8.00;;;1.80;99.90;;;;;;4996846;28;20200;-75
2022/12/08 09:01:59;;;;;;;13.60;7.90;;;1.80;99.90;;;;;;5022009;28;20231;-77
2022/12/08 09:04:29;;;;;;;15.80;8.40;;;1.80;99.90;;;;;;5016262;28;20671;-80
2022/12/08 09:07:07;;;;;;;18.27;8.67;;;1.70;99.90;;;;;;5016055;28;20302;-77
2022/12/08 09:09:41;;;;;;;16.83;8.67;;;1.70;99.90;;;;;;5016315;28;20302;-78
2022/12/08 09:12:08;;;;;;;17.00;8.70;;;1.50;99.90;;;;;;5016246;28;20211;-84
2022/12/08 09:14:35;;;;;;;18.67;9.00;;;1.60;99.90;;;;;;5033139;28;20226;-78
2022/12/08 09:17:05;;;;;;;18.53;9.00;;;1.60;99.90;;;;;;5033149;28;20196;-77
2022/12/08 09:19:33;;;;;;;20.27;9.23;;;1.70;99.90;;;;;;5017968;28;20199;-81
2022/12/08 09:22:01;;;;;;;17.40;9.57;;;1.60;99.90;;;;;;5035307;28;20234;-84
2022/12/08 09:24:35;;;;;;;16.83;9.30;;;1.70;99.90;;;;;;5017783;28;20195;-93
2022/12/08 09:27:07;;;;;;;16.00;9.23;;;1.70;99.90;;;;;;5016655;28;20209;-87
2022/12/08 09:29:45;;;;;;;18.60;9.80;;;1.70;99.90;;;;;;5000576;28;20656;-90
2022/12/08 09:32:21;;;;;;;18.50;9.50;;;1.80;99.90;;;;;;5036447;28;20203;-94
2022/12/08 09:35:04;;;;;;;19.30;9.60;;;1.80;99.90;;;;;;5036020;28;20717;-83
2022/12/08 09:37:37;;;;;;;20.70;10.47;;;1.90;99.90;;;;;;5026928;28;20199;-74
2022/12/08 09:40:19;;;;;;;18.43;9.33;;;1.90;99.90;;;;;;5037094;28;20203;-78
2022/12/08 09:42:58;;;;;;;20.67;9.73;;;1.80;99.90;;;;;;5039160;28;20199;-73
2022/12/08 09:45:36;;;;;;;19.03;10.07;;;2.00;99.90;;;;;;5027069;28;20230;-88
2022/12/08 09:48:24;;;;;;;19.47;9.80;;;2.10;99.90;;;;;;5039929;28;20197;-95
2022/12/08 09:50:57;;;;;;;17.97;9.93;;;2.00;99.90;;;;;;5016195;28;20608;-96
2022/12/08 09:53:49;;;;;;;19.43;10.20;;;2.10;99.90;;;;;;4999365;28;20215;-74
2022/12/08 09:56:34;;;;;;;20.53;10.40;;;2.00;99.90;;;;;;4981178;28;20220;-76
2022/12/08 09:59:28;;;;;;;23.27;11.30;;;2.00;99.90;;;;;;4997535;28;20185;-74
2022/12/08 10:01:57;;;;;;;21.07;10.33;;;2.20;99.90;;;;;;4990451;28;20227;-74
2022/12/08 10:04:37;;;;;;;20.80;10.80;;;2.30;99.90;;;;;;4964706;28;20201;-73
2022/12/08 10:07:46;;;;;;;20.57;11.03;;;2.30;99.90;;;;;;4961950;28;20235;-78
2022/12/08 10:10:40;;;;;;;22.17;11.43;;;2.30;99.90;;;;;;4968939;28;20209;-74
2022/12/08 10:13:44;;;;;;;22.07;11.50;;;2.50;99.90;;;;;;5000656;28;20219;-83
2022/12/08 10:16:28;;;;;;;23.37;11.00;;;2.70;99.90;;;;;;4978762;28;20217;-74
2022/12/08 10:19:14;;;;;;;19.87;11.50;;;2.80;99.90;;;;;;4976493;28;20192;-76
2022/12/08 10:21:48;;;;;;;24.10;11.63;;;2.90;99.90;;;;;;4976868;28;20204;-78
2022/12/08 10:25:16;;;;;;;23.40;11.63;;;2.90;99.90;;;;;;4998113;28;20208;-81
2022/12/08 10:27:45;;;;;;;22.83;11.43;;;2.80;99.90;;;;;;4993101;28;20200;-75
2022/12/08 10:30:14;;;;;;;19.00;11.23;;;2.80;99.90;;;;;;4990153;28;20199;-73
2022/12/08 10:32:45;;;;;;;22.63;11.43;;;2.80;99.90;;;;;;4979401;28;20196;-74
2022/12/08 10:35:14;;;;;;;22.57;11.87;;;2.90;99.90;;;;;;4990092;28;20224;-73
2022/12/08 10:38:16;;;;;;;19.73;11.43;;;3.00;99.90;;;;;;4993864;28;20572;-74
2022/12/08 10:40:52;;;;;;;22.23;12.27;;;3.00;99.90;;;;;;4899709;29;20312;-73
2022/12/08 10:43:24;;;;;;;22.30;12.27;;;3.10;99.90;;;;;;4911905;29;20207;-72
2022/12/08 10:45:51;;;;;;;22.80;11.93;;;3.00;99.90;;;;;;4916343;29;20213;-72
2022/12/08 10:48:23;;;;;;;22.73;12.27;;;3.00;99.90;;;;;;4914387;29;20750;-82
2022/12/08 10:51:04;;;;;;;23.70;12.10;;;3.10;99.90;;;;;;4900085;29;20207;-92
2022/12/08 10:53:43;;;;;;;21.70;12.10;;;3.30;99.90;;;;;;4910618;29;20219;-80
2022/12/08 10:56:17;;;;;;;22.13;11.50;;;3.30;99.90;;;;;;4920470;29;20238;-75
2022/12/08 10:58:46;;;;;;;21.93;12.50;;;3.40;99.90;;;;;;4919685;29;20197;-75
2022/12/08 11:01:35;;;;;;;19.93;11.63;;;3.40;99.90;;;;;;4923341;29;20282;-77
2022/12/08 11:04:10;;;;;;;22.00;12.00;;;3.20;99.90;;;;;;4916100;29;20203;-78
2022/12/08 11:06:41;;;;;;;23.47;12.77;;;3.40;99.90;;;;;;4930243;29;20255;-84
2022/12/08 11:09:17;;;;;;;23.07;12.47;;;3.20;99.90;;;;;;4921098;29;20224;-76
2022/12/08 11:11:59;;;;;;;22.10;12.17;;;3.30;99.90;;;;;;4919929;29;20199;-76
2022/12/08 11:15:01;;;;;;;21.90;12.30;;;3.50;99.90;;;;;;4932076;29;20267;-83
2022/12/08 11:17:38;;;;;;;22.53;12.60;;;3.60;99.90;;;;;;4984269;28;20201;-79
2022/12/08 11:20:08;;;;;;;22.37;11.57;;;3.50;99.90;;;;;;4993731;28;20210;-79
2022/12/08 11:22:47;;;;;;;25.60;13.47;;;3.40;99.90;;;;;;4995661;28;20208;-76
2022/12/08 11:25:32;;;;;;;19.90;12.03;;;3.50;99.90;;;;;;4994734;28;20205;-74
2022/12/08 11:28:12;;;;;;;26.07;13.73;;;3.70;99.90;;;;;;4987224;28;20198;-74
2022/12/08 11:30:48;;;;;;;24.23;13.37;;;3.90;99.90;;;;;;4981516;28;20219;-74
2022/12/08 11:33:32;;;;;;;25.10;13.70;;;4.00;99.90;;;;;;5003901;28;20727;-76
2022/12/08 11:36:12;;;;;;;24.30;13.63;;;4.30;99.90;;;;;;5015944;28;20220;-84
2022/12/08 11:38:51;;;;;;;28.20;14.27;;;4.20;99.90;;;;;;4998435;28;20194;-76
2022/12/08 11:42:00;;;;;;;27.83;14.57;;;4.20;99.90;;;;;;4998596;28;20209;-79
2022/12/08 11:44:43;;;;;;;28.17;13.37;;;4.10;99.90;;;;;;4918322;29;20319;-82
2022/12/08 11:47:48;;;;;;;24.83;13.47;;;4.00;99.90;;;;;;4902710;29;20202;-79
2022/12/08 11:50:28;;;;;;;27.40;13.97;;;3.90;99.90;;;;;;4919491;29;20256;-79
2022/12/08 11:53:03;;;;;;;24.13;13.40;;;3.80;99.90;;;;;;4891821;29;20245;-82
2022/12/08 11:56:04;;;;;;;28.17;14.53;;;3.70;99.90;;;;;;4893957;29;20225;-85
2022/12/08 11:58:55;;;;;;;22.97;13.50;;;3.60;99.90;;;;;;4878693;29;20623;-83
2022/12/08 12:01:51;;;;;;;24.67;13.67;;;3.50;99.90;;;;;;4879429;29;20328;-76
2022/12/08 12:04:43;;;;;;;27.20;14.73;;;3.40;99.90;;;;;;4864094;29;20209;-75
2022/12/08 12:07:53;;;;;;;24.80;13.80;;;3.10;99.90;;;;;;4879846;29;20205;-84
2022/12/08 12:11:03;;;;;;;28.00;14.17;;;3.10;99.90;;;;;;4863298;29;20315;-79
2022/12/08 12:14:21;;;;;;;27.03;13.33;;;3.00;99.90;;;;;;4878347;29;20316;-79
2022/12/08 12:17:21;;;;;;;26.90;14.17;;;3.00;99.90;;;;;;4863586;29;20221;-78
2022/12/08 12:19:54;;;;;;;29.77;14.63;;;2.90;99.90;;;;;;4888036;29;20382;-80
2022/12/08 12:22:28;;;;;;;27.73;15.50;;;3.00;99.90;;;;;;4919707;29;20604;-82
2022/12/08 12:25:02;;;;;;;28.40;14.93;;;3.00;99.90;;;;;;4935892;29;20195;-96
2022/12/08 12:27:39;;;;;;;27.80;15.03;;;2.70;99.90;;;;;;4920733;29;20705;-74
2022/12/08 12:30:17;;;;;;;26.80;15.23;;;2.70;99.90;;;;;;4919953;29;20191;-83
2022/12/08 12:32:59;;;;;;;29.90;16.27;;;2.70;99.90;;;;;;4919401;29;20335;-78
2022/12/08 12:35:36;;;;;;;28.80;15.43;;;2.80;99.90;;;;;;4968018;28;20236;-73
2022/12/08 12:38:59;;;;;;;26.37;15.17;;;2.70;99.90;;;;;;4992986;28;20603;-80
2022/12/08 12:41:01;;;;;;;26.27;14.77;;;2.80;99.90;;;;;;4999321;28;20196;-79
2022/12/08 12:43:36;;;;;;;33.80;17.43;;;2.80;99.90;;;;;;4984542;28;20203;-90
2022/12/08 12:46:24;;;;;;;31.30;17.57;;;2.90;99.90;;;;;;4988332;28;20287;-88
2022/12/08 12:49:36;;;;;;;32.57;16.53;;;2.90;99.90;;;;;;4980800;28;20349;-84
2022/12/08 12:52:19;;;;;;;30.40;16.13;;;2.90;99.90;;;;;;5000500;28;20196;-90
2022/12/08 12:54:49;;;;;;;32.47;17.63;;;2.90;99.90;;;;;;4982691;28;20200;-90
2022/12/08 12:57:23;;;;;;;33.13;17.60;;;2.90;99.90;;;;;;4989999;28;20220;-86
2022/12/08 13:00:02;;;;;;;31.13;16.20;;;2.90;99.90;;;;;;4990613;28;20292;-78
2022/12/08 13:02:43;;;;;;;33.70;18.13;;;3.00;99.90;;;;;;4978863;28;20701;-82
2022/12/08 13:05:22;;;;;;;29.80;16.20;;;3.00;99.90;;;;;;4965055;28;20189;-75
2022/12/08 13:08:23;;;;;;;33.10;16.47;;;3.10;99.90;;;;;;4989851;28;20206;-79
2022/12/08 13:11:03;;;;;;;31.03;16.17;;;3.10;99.90;;;;;;5008731;28;20215;-77
2022/12/08 13:13:31;;;;;;;30.03;16.20;;;3.10;99.90;;;;;;4960814;28;20223;-79
2022/12/08 13:16:21;;;;;;;30.50;16.90;;;3.00;99.90;;;;;;4980871;28;20230;-76
2022/12/08 13:18:52;;;;;;;32.83;17.10;;;2.90;99.90;;;;;;4980611;28;20192;-84
2022/12/08 13:21:21;;;;;;;29.77;16.43;;;3.00;99.90;;;;;;4988007;28;20300;-73
2022/12/08 13:24:28;;;;;;;33.60;17.63;;;3.00;99.90;;;;;;4976645;28;20204;-75
2022/12/08 13:27:07;;;;;;;33.47;17.73;;;2.90;99.90;;;;;;4919726;29;20242;-84
2022/12/08 13:29:38;;;;;;;31.57;15.90;;;2.90;99.90;;;;;;4924267;29;20202;-84
2022/12/08 13:32:10;;;;;;;32.53;17.13;;;2.90;99.90;;;;;;4913233;29;20213;-74
2022/12/08 13:34:45;;;;;;;31.90;17.03;;;2.90;99.90;;;;;;4931315;29;20556;-74
2022/12/08 13:37:12;;;;;;;34.33;17.97;;;2.90;99.90;;;;;;4915119;29;20331;-76
2022/12/08 13:39:58;;;;;;;31.23;17.30;;;3.00;99.90;;;;;;4899836;29;20212;-73
2022/12/08 13:43:03;;;;;;;32.23;17.03;;;3.00;99.90;;;;;;4899167;29;20203;-74
2022/12/08 13:45:37;;;;;;;33.50;17.70;;;3.00;99.90;;;;;;4914798;29;20282;-81
2022/12/08 13:48:52;;;;;;;34.70;17.80;;;2.80;99.90;;;;;;4922733;29;20214;-74
2022/12/08 13:51:45;;;;;;;33.90;18.17;;;2.90;99.90;;;;;;4910054;29;20207;-83
2022/12/08 13:54:38;;;;;;;35.60;18.23;;;2.90;99.90;;;;;;4925877;29;20210;-78
2022/12/08 13:57:38;;;;;;;38.13;18.73;;;2.80;99.90;;;;;;4908987;29;20222;-85
2022/12/08 14:00:18;;;;;;;37.47;18.97;;;2.80;99.90;;;;;;4906363;29;20198;-89
2022/12/08 14:02:47;;;;;;;34.97;18.17;;;2.70;99.90;;;;;;4939023;28;20262;-92
2022/12/08 14:05:21;;;;;;;36.60;19.10;;;2.80;99.90;;;;;;5004373;28;20188;-81
2022/12/08 14:08:20;;;;;;;35.70;17.53;;;2.80;99.90;;;;;;4979732;28;20275;-86